Terminal Aerodrome Forecast
Issued by NWS

Home | Current Version | Previous Version | Text Only | Print | Product List | Glossary Off
Versions: 1 2 3 4 5 6 7 8 9 10 11 12 13 14 15 16 17

000
FTUS42 KMHX 191100
TAFOAJ
TAF
KOAJ 191138Z 1912/2012 25006KT P6SM SCT040
     FM191900 25008KT P6SM VCTS BKN040CB
     FM200200 29004KT P6SM SCT040 BKN100
     FM200800 35003KT 4SM BR SCT007 BKN100
      AMD LTD TO CLD VIS AND WIND=

USA.gov is the U.S. government's official web portal to all federal, state and local government web resources and services.